Avondale, CO

4:36 AM MDT on September 02, 2014 (GMT -0600)
Pueblo Memorial | Change Station
CLOSE
Current Station
Airport
Location: Pueblo,
Elevation: 4721 ft
Nearby Weather Stations

Elev 4721 ft 38.29 °N, 104.50 °W | Updated 43 minutes ago

Mostly Cloudy
Mostly Cloudy
63 °F
Feels Like 63 °F
N
6
Wind Variable Wind from NNE

Today
High -- | Low -- °F
--% Chance of Precip.
Yesterday
High -- | Low -- °F
Precip. -- in
6:28 AM 7:25 PM
Waxing Crescent, 50% visible
Pressure 29.90 in
Visibility 10.0 miles
Clouds Mostly Cloudy 2000 ft
Dew Point 52 °F
Humidity 67%
Rainfall 0.00 in
Snow Depth Not available.
UV 0 out of 12
Pollen 10.00 out of 12
Air Quality Not available.
Flu Activity Not available.
METAR KPUB 020953Z AUTO 03005KT 10SM BKN020 17/11 A3009 RMK AO2 SLP124 T01720111

More Conditions Fewer Conditions

Pressure 29.90 in
Visibility 10.0 miles
Clouds Mostly Cloudy 2000 ft
Dew Point 52 °F
Humidity 67%
Rainfall 0.00 in
Snow Depth Not available.
UV 0 out of 12
Pollen 10.00 out of 12
Air Quality Not available.
Flu Activity Not available.
METAR KPUB 020953Z AUTO 03005KT 10SM BKN020 17/11 A3009 RMK AO2 SLP124 T01720111

More Conditions Fewer Conditions

10-Day Weather Forecast

Almanac

Astronomy

Sep. 02, 2014 Rise Set
Actual Time 6:28 AM MDT 7:25 PM MDT
Civil Twilight 6:01 AM MDT 7:52 PM MDT
Nautical Twilight 5:29 AM MDT 8:24 PM MDT
Astronomical Twilight 4:56 AM MDT 8:57 PM MDT
Moon 2:08 PM MDT No Moon Set
Length of Visible Light 13h 51m
Length of Day
12h 57m
Tomorrow will be 2m 22s shorter.
Waxing Crescent, 50% of the Moon is Illuminated
Today
Waxing Crescent
Sep 2
First Quarter
Sep 8
Full
Sep 15
Last Quarter
Sep 24
New

Today's Extremes

State Highs State Lows

Community

WunderPhotos

Upload Photos

1,749,611 photos uploaded!

WunderBlogs® & News

Nearby

Snow Depth

Station Depth Elevation
Medano Pass 0 in 9620 ft
South Colony 1 in 10800 ft
Ute Creek 0 in 10650 ft
Apishapa 1 in 10000 ft
Trinchera 0 in 10860 ft

Earthquake Activity

City Distance Mag. Time & Date
Trinidad, Colorado 78 miles 2.7 4:20 AM MDT
2014-08-31
Minimum magnitude displayed is 2.5.

Coastal Water Temperatures

Place Temperature
No Stations Reporting

Nearby Weather Stations